-> Other stations

1455

Speed(max): 1.6(5.4)knots
Direction:129° ( SE)
Temperature: 31.5°C
Arrived: 2026-09-05 13:05:27 CEST

Past data:
hh:mmknots
Dir (°)
°C
13:03 4.9 7.6 SE(132) 31.0
13:01 6.5 8.6 SE(129) 30.3
12:59 5.4 8.6 SE(131) 30.5
12:57 5.4 8.6 ESE(123) 30.6
12:55 4.3 8.1 SE(133) 30.7
12:53 7 8.6 ESE(118) 29.7
12:51 5.9 8.1 ESE(122) 29.8
12:49 7 10.3 SE(125) 29.7
12:47 6.5 9.2 E(86) 29.5
12:45 7 10.3 ESE(108) 29.8
12:43 4.9 7 ESE(109) 30.2
12:41 4.9 7.6 SE(139) 30.7
12:39 4.3 7 SE(124) 30.6
12:37 5.9 8.1 SE(125) 30.2
15 min. averages:
hh:mmknots
Dir (°)
°C
13:00 5.9 10.3 ESE(118) 30.0
12:45 4.9 8.1 SE(130) 30.6
12:30 4.3 9.2 SSE(147) 31.0
12:15 3.8 8.6 SSE(166) 32.0
12:00 3.8 8.1 SSE(157) 32.4
11:45 4.9 9.2 SSE(148) 31.8
11:30 4.9 9.2 SE(144) 32.3
11:15 3.8 8.1 SSE(154) 33.2
11:00 6.5 9.2 NE(50) 29.9
10:45 7.6 10.8 NE(36) 29.1
10:30 6.5 8.6 NNE(29) 29.1
10:15 7 8.6 NNE(17) 30.1
10:00 6.5 8.6 N(11) 29.9
09:45 6.5 8.1 NNE(24) 29.8
09:30 4.9 7.6 NNE(27) 30.1
Stations at HR:
1455
-> Other regions

Desktop view
Data provided by Holfuy.
© Holfuy Weather 2026